createdAt,value
2023-02-13T00:00:22.292Z,35.50
2023-02-13T00:02:49.268Z,31.02
2023-02-13T00:05:16.133Z,30.85
2023-02-13T00:07:42.887Z,47.05
2023-02-13T00:10:10.229Z,38.60
2023-02-13T00:12:37.135Z,51.35
2023-02-13T00:15:04.825Z,46.72
2023-02-13T00:17:33.141Z,56.13
2023-02-13T00:20:00.015Z,45.72
2023-02-13T00:22:26.921Z,47.38
2023-02-13T00:24:53.686Z,48.38
2023-02-13T00:27:20.583Z,47.53
2023-02-13T00:29:47.337Z,63.60
2023-02-13T00:32:15.234Z,45.33
2023-02-13T00:34:43.928Z,64.25
2023-02-13T00:37:10.742Z,40.55
2023-02-13T00:39:37.453Z,54.20
2023-02-13T00:42:04.771Z,67.65
2023-02-13T00:44:31.508Z,51.72
2023-02-13T00:46:58.181Z,47.08
2023-02-13T00:49:25.150Z,50.28
2023-02-13T00:51:51.853Z,57.58
2023-02-13T00:54:18.662Z,53.97
2023-02-13T00:56:45.385Z,59.65
2023-02-13T00:59:12.156Z,53.47
2023-02-13T01:01:38.925Z,53.05
2023-02-13T01:04:05.730Z,45.63
2023-02-13T01:06:32.582Z,51.17
2023-02-13T01:08:59.251Z,52.00
2023-02-13T01:11:26.065Z,48.58
2023-02-13T01:13:52.763Z,49.17
2023-02-13T01:16:19.561Z,52.67
2023-02-13T01:18:46.353Z,49.08
2023-02-13T01:21:21.629Z,42.92
2023-02-13T01:23:48.442Z,60.63
2023-02-13T01:26:19.770Z,62.03
2023-02-13T01:28:46.689Z,47.22
2023-02-13T01:31:14.367Z,53.40
2023-02-13T01:33:41.327Z,61.15
2023-02-13T01:36:12.548Z,52.75
2023-02-13T01:38:39.354Z,55.08
2023-02-13T01:41:06.626Z,44.70
2023-02-13T01:44:02.878Z,53.22
2023-02-13T01:51:49.150Z,57.15
2023-02-13T01:54:30.968Z,50.15
2023-02-13T01:57:19.318Z,48.00
2023-02-13T02:00:14.929Z,52.33
2023-02-13T02:02:51.282Z,47.28
2023-02-13T02:05:21.647Z,52.55
2023-02-13T02:07:49.831Z,37.72
2023-02-13T02:10:19.626Z,37.63
2023-02-13T02:13:01.922Z,43.45
2023-02-13T02:15:29.178Z,42.55
2023-02-13T02:17:55.898Z,42.28
2023-02-13T02:20:22.580Z,41.25
2023-02-13T02:22:55.267Z,42.95
2023-02-13T02:26:09.394Z,46.22
2023-02-13T02:28:51.235Z,45.47
2023-02-13T02:31:55.933Z,49.38
2023-02-13T02:34:47.817Z,40.05
2023-02-13T02:37:17.501Z,40.00
2023-02-13T02:39:50.904Z,38.13
2023-02-13T02:42:42.276Z,46.70
2023-02-13T02:45:29.229Z,43.53
2023-02-13T02:48:39.453Z,40.55
2023-02-13T02:54:01.032Z,35.78
2023-02-13T02:56:40.303Z,36.17
2023-02-13T02:59:34.294Z,34.08
2023-02-13T03:02:20.932Z,32.92
2023-02-13T03:05:09.669Z,29.92
2023-02-13T03:07:36.385Z,27.58
2023-02-13T03:10:26.201Z,25.67
2023-02-13T03:13:21.702Z,28.10
2023-02-13T03:16:16.242Z,28.75
2023-02-13T03:19:05.530Z,26.75
2023-02-13T03:22:05.502Z,25.05
2023-02-13T03:24:47.000Z,23.48
2023-02-13T03:28:02.021Z,23.27
2023-02-13T03:30:44.093Z,21.27
2023-02-13T03:33:29.044Z,19.77
2023-02-13T03:36:58.827Z,20.95
2023-02-13T03:39:54.509Z,19.52
2023-02-13T03:42:50.531Z,20.02
2023-02-13T03:45:44.238Z,26.38
2023-02-13T03:48:32.221Z,22.60
2023-02-13T03:51:02.076Z,22.98
2023-02-13T03:53:31.480Z,22.80
2023-02-13T03:56:18.129Z,24.90
2023-02-13T03:59:11.155Z,23.73
2023-02-13T04:01:40.121Z,22.00
2023-02-13T04:04:28.814Z,23.08
2023-02-13T04:07:29.247Z,19.33
2023-02-13T04:10:00.118Z,21.38
2023-02-13T04:12:48.096Z,21.42
2023-02-13T04:15:25.391Z,17.60
2023-02-13T04:18:23.716Z,22.50
2023-02-13T04:20:50.638Z,20.90
2023-02-13T04:23:17.438Z,23.83
2023-02-13T04:25:48.661Z,20.25
2023-02-13T04:28:15.519Z,20.65
2023-02-13T04:30:42.441Z,20.23
2023-02-13T04:33:09.314Z,22.73
2023-02-13T04:35:36.078Z,26.73
2023-02-13T04:38:02.913Z,26.77
2023-02-13T04:40:29.666Z,23.92
2023-02-13T04:42:56.519Z,23.52
2023-02-13T04:45:23.254Z,26.65
2023-02-13T04:47:51.586Z,24.08
2023-02-13T04:50:18.782Z,24.65
2023-02-13T04:52:45.615Z,23.17
2023-02-13T04:55:12.725Z,24.40
2023-02-13T04:57:39.882Z,25.45
2023-02-13T05:00:07.924Z,24.70
2023-02-13T05:02:34.665Z,25.25
2023-02-13T05:05:01.352Z,23.67
2023-02-13T05:07:28.132Z,26.45
2023-02-13T05:09:54.822Z,27.48
2023-02-13T05:12:21.510Z,27.83
2023-02-13T05:14:48.400Z,27.27
2023-02-13T05:17:15.460Z,25.85
2023-02-13T05:19:42.185Z,25.55
2023-02-13T05:22:28.800Z,25.83
2023-02-13T05:24:55.565Z,26.40
2023-02-13T05:27:22.374Z,28.00
2023-02-13T05:29:49.546Z,27.20
2023-02-13T05:32:16.363Z,28.98
2023-02-13T05:34:43.155Z,26.67
2023-02-13T05:37:09.909Z,27.23
2023-02-13T05:39:36.624Z,31.48
2023-02-13T05:42:04.813Z,30.10
2023-02-13T05:44:32.332Z,27.33
2023-02-13T05:46:59.606Z,27.90
2023-02-13T05:49:26.331Z,29.25
2023-02-13T05:51:53.166Z,35.45
2023-02-13T05:54:19.981Z,29.02
2023-02-13T05:56:47.068Z,29.83
2023-02-13T05:59:14.198Z,29.88
2023-02-13T06:01:40.942Z,28.30
2023-02-13T06:04:07.693Z,32.60
2023-02-13T06:06:34.466Z,30.33
2023-02-13T06:09:01.193Z,29.25
2023-02-13T06:11:27.876Z,30.02
2023-02-13T06:13:54.571Z,30.77
2023-02-13T06:16:22.460Z,28.25
2023-02-13T06:18:49.282Z,32.40
2023-02-13T06:21:16.010Z,32.45
2023-02-13T06:23:42.988Z,33.63
2023-02-13T06:26:10.162Z,31.08
2023-02-13T06:28:36.924Z,31.73
2023-02-13T06:31:03.851Z,28.45
2023-02-13T06:33:30.667Z,29.35
2023-02-13T06:35:57.452Z,33.75
2023-02-13T06:38:24.388Z,33.55
2023-02-13T06:40:51.796Z,29.73
2023-02-13T06:43:18.925Z,32.25
2023-02-13T06:45:47.197Z,32.08
2023-02-13T06:48:14.804Z,28.83
2023-02-13T06:50:41.679Z,29.73
2023-02-13T06:53:08.487Z,30.58
2023-02-13T06:55:36.375Z,31.60
2023-02-13T06:58:03.155Z,34.97
2023-02-13T07:00:29.995Z,30.92
2023-02-13T07:03:03.073Z,34.53
2023-02-13T07:05:30.136Z,35.17
2023-02-13T07:07:57.185Z,29.83
2023-02-13T07:10:23.943Z,34.65
2023-02-13T07:13:03.700Z,33.58
2023-02-13T07:15:32.442Z,33.80
2023-02-13T07:18:00.553Z,32.45
2023-02-13T07:20:27.750Z,32.65
2023-02-13T07:23:01.581Z,34.25
2023-02-13T07:25:28.969Z,31.52
2023-02-13T07:27:55.910Z,32.65
2023-02-13T07:30:22.663Z,35.80
2023-02-13T07:32:49.516Z,37.72
2023-02-13T07:35:16.289Z,33.58
2023-02-13T07:37:42.977Z,37.65
2023-02-13T07:40:10.290Z,33.97
2023-02-13T07:42:36.985Z,33.30
2023-02-13T07:45:06.190Z,35.80
2023-02-13T07:47:34.110Z,36.17
2023-02-13T07:50:01.530Z,35.35
2023-02-13T07:52:28.228Z,37.20
2023-02-13T07:54:54.926Z,33.75
2023-02-13T07:57:21.857Z,37.85
2023-02-13T07:59:48.592Z,34.65
2023-02-13T08:02:16.104Z,36.83
2023-02-13T08:04:49.165Z,36.13
2023-02-13T08:07:17.732Z,38.17
2023-02-13T08:10:04.548Z,35.25
2023-02-13T08:12:32.949Z,34.63
2023-02-13T08:14:59.646Z,37.30
2023-02-13T08:17:26.387Z,36.95
2023-02-13T08:19:53.112Z,36.60
2023-02-13T08:22:19.846Z,38.42
2023-02-13T08:24:46.837Z,36.92
2023-02-13T08:27:14.867Z,36.25
2023-02-13T08:29:42.112Z,35.53
2023-02-13T08:32:09.191Z,37.05
2023-02-13T08:34:36.091Z,40.88
2023-02-13T08:37:03.668Z,35.13
2023-02-13T08:39:30.433Z,34.03
2023-02-13T08:41:57.206Z,35.88
2023-02-13T08:44:23.957Z,35.08
2023-02-13T08:46:50.726Z,37.63
2023-02-13T08:49:17.436Z,36.45
2023-02-13T08:51:44.251Z,37.35
2023-02-13T08:54:11.066Z,33.92
2023-02-13T08:56:37.833Z,33.13
2023-02-13T08:59:04.521Z,32.22
2023-02-13T09:01:31.353Z,34.70
2023-02-13T09:03:58.090Z,32.40
2023-02-13T09:06:26.440Z,33.05
2023-02-13T09:08:53.870Z,34.17
2023-02-13T09:11:23.288Z,33.03
2023-02-13T09:13:53.290Z,30.53
2023-02-13T09:16:20.564Z,33.28
2023-02-13T09:18:48.734Z,31.00
2023-02-13T09:21:15.965Z,32.63
2023-02-13T09:23:42.859Z,31.05
2023-02-13T09:26:15.208Z,32.35
2023-02-13T09:28:42.886Z,33.63
2023-02-13T09:31:20.691Z,33.45
2023-02-13T09:33:49.892Z,34.42
2023-02-13T09:36:20.694Z,32.30
2023-02-13T09:38:51.558Z,29.83
2023-02-13T09:41:25.549Z,33.63
2023-02-13T09:44:01.114Z,32.22
2023-02-13T09:46:39.998Z,31.35
2023-02-13T09:49:20.646Z,30.92
2023-02-13T09:51:54.318Z,30.65
2023-02-13T09:54:21.183Z,32.88
2023-02-13T09:57:17.804Z,30.08
2023-02-13T10:00:13.099Z,27.33
2023-02-13T10:02:58.079Z,27.25
2023-02-13T10:05:42.888Z,30.85
2023-02-13T10:08:30.525Z,28.55
2023-02-13T10:11:00.380Z,27.65
2023-02-13T10:13:53.140Z,28.42
2023-02-13T10:16:24.719Z,28.52
2023-02-13T10:19:29.101Z,29.27
2023-02-13T10:22:05.251Z,29.83
2023-02-13T10:24:35.936Z,29.70
2023-02-13T10:27:13.497Z,30.15
2023-02-13T10:30:14.192Z,29.15
2023-02-13T10:33:11.161Z,31.15
2023-02-13T10:35:39.431Z,31.95
2023-02-13T10:38:18.492Z,30.35
2023-02-13T10:40:58.088Z,30.48
2023-02-13T10:43:29.210Z,29.55
2023-02-13T10:46:44.832Z,31.38
2023-02-13T10:49:34.873Z,30.70
2023-02-13T10:52:30.199Z,30.90
2023-02-13T10:55:23.119Z,31.10
2023-02-13T10:58:01.978Z,33.80
2023-02-13T11:00:53.010Z,36.13
2023-02-13T11:03:29.037Z,36.88
2023-02-13T11:05:58.046Z,35.45
2023-02-13T11:08:40.611Z,36.67
2023-02-13T11:11:36.975Z,32.03
2023-02-13T11:14:17.374Z,36.85
2023-02-13T11:16:53.744Z,35.03
2023-02-13T11:19:32.566Z,35.75
2023-02-13T11:22:08.717Z,34.58
2023-02-13T11:24:36.638Z,35.00
2023-02-13T11:27:12.898Z,34.92
2023-02-13T11:29:58.394Z,37.47
2023-02-13T11:32:28.448Z,33.15
2023-02-13T11:34:56.091Z,36.60
2023-02-13T11:37:30.031Z,36.08
2023-02-13T11:39:59.319Z,35.63
2023-02-13T11:42:35.722Z,40.92
2023-02-13T11:45:20.372Z,35.03
2023-02-13T11:47:47.567Z,34.40
2023-02-13T11:50:31.676Z,34.35
2023-02-13T11:53:06.201Z,32.08
2023-02-13T11:55:38.319Z,35.10
2023-02-13T11:58:05.014Z,35.63
2023-02-13T12:00:42.348Z,32.42
2023-02-13T12:03:21.536Z,33.15
2023-02-13T12:06:00.440Z,32.53
2023-02-13T12:08:28.016Z,34.13
2023-02-13T12:10:57.531Z,33.42
2023-02-13T12:13:24.264Z,31.95
2023-02-13T12:16:00.236Z,36.15
2023-02-13T12:18:50.801Z,31.25
2023-02-13T12:21:32.761Z,31.02
2023-02-13T12:24:21.148Z,30.60
2023-02-13T12:27:00.482Z,32.83
2023-02-13T12:29:56.474Z,31.17
2023-02-13T12:32:46.041Z,29.98
2023-02-13T12:35:24.661Z,31.10
2023-02-13T12:37:57.437Z,33.30
2023-02-13T12:41:02.914Z,32.30
2023-02-13T12:43:49.859Z,33.53
2023-02-13T12:46:32.592Z,34.95
2023-02-13T12:49:22.282Z,30.00
2023-02-13T12:52:01.086Z,36.47
2023-02-13T12:55:09.702Z,32.83
2023-02-13T12:58:05.557Z,34.25
2023-02-13T13:00:35.146Z,34.75
2023-02-13T13:03:16.912Z,37.42
2023-02-13T13:06:08.920Z,32.38
2023-02-13T13:08:55.631Z,34.33
2023-02-13T13:11:47.477Z,33.47
2023-02-13T13:14:26.249Z,33.03
2023-02-13T13:16:58.959Z,34.40
2023-02-13T13:19:46.952Z,33.50
2023-02-13T13:22:21.002Z,33.60
2023-02-13T13:25:03.803Z,39.20
2023-02-13T13:27:34.663Z,33.70
2023-02-13T13:30:13.362Z,35.05
2023-02-13T13:32:41.743Z,32.88
2023-02-13T13:35:19.918Z,34.33
2023-02-13T13:38:17.396Z,30.95
2023-02-13T13:41:08.759Z,35.42
2023-02-13T13:43:56.581Z,29.48
2023-02-13T13:46:35.635Z,33.92
2023-02-13T13:49:17.443Z,32.25
2023-02-13T13:51:44.496Z,37.15
2023-02-13T13:54:11.313Z,33.90
2023-02-13T13:56:53.378Z,32.25
2023-02-13T13:59:38.252Z,31.60
2023-02-13T14:02:17.285Z,29.23
2023-02-13T14:05:10.488Z,31.63
2023-02-13T14:07:41.507Z,33.90
2023-02-13T14:10:34.891Z,32.35
2023-02-13T14:13:05.260Z,29.00
2023-02-13T14:18:20.961Z,28.02
2023-02-13T14:20:50.310Z,26.27
2023-02-13T14:23:53.637Z,31.45
2023-02-13T14:26:28.858Z,30.05
2023-02-13T14:29:10.200Z,30.00
2023-02-13T14:31:41.073Z,30.10
2023-02-13T14:34:18.206Z,31.23
2023-02-13T14:37:10.929Z,29.58
2023-02-13T14:39:42.001Z,29.65
2023-02-13T14:42:27.586Z,29.17
2023-02-13T14:44:59.810Z,27.58
2023-02-13T14:47:40.332Z,32.08
2023-02-13T14:50:14.376Z,30.42
2023-02-13T14:52:45.649Z,28.27
2023-02-13T14:55:18.048Z,30.50
2023-02-13T14:57:50.751Z,30.85
2023-02-13T15:00:56.744Z,31.00
2023-02-13T15:03:49.207Z,30.15
2023-02-13T15:06:24.186Z,29.95
2023-02-13T15:08:52.746Z,29.92
2023-02-13T15:11:39.654Z,29.40
2023-02-13T15:14:25.604Z,30.60
2023-02-13T15:17:18.225Z,30.38
2023-02-13T15:19:48.891Z,27.85
2023-02-13T15:22:39.730Z,29.73
2023-02-13T15:25:08.171Z,28.08
2023-02-13T15:27:43.353Z,28.10
2023-02-13T15:30:24.112Z,34.83
2023-02-13T15:33:02.988Z,28.90
2023-02-13T15:35:33.061Z,28.83
2023-02-13T15:38:00.676Z,29.48
2023-02-13T15:40:30.598Z,32.97
2023-02-13T15:42:58.446Z,28.65
2023-02-13T15:45:28.251Z,26.90
2023-02-13T15:47:56.285Z,29.80
2023-02-13T15:50:35.969Z,29.33
2023-02-13T15:53:09.883Z,29.85
2023-02-13T15:55:38.413Z,30.52
2023-02-13T15:58:05.578Z,31.08
2023-02-13T16:00:39.329Z,35.60
2023-02-13T16:03:14.048Z,31.27
2023-02-13T16:05:41.662Z,30.05
2023-02-13T16:08:31.859Z,31.67
2023-02-13T16:11:17.795Z,30.08
2023-02-13T16:14:03.915Z,30.98
2023-02-13T16:16:36.449Z,31.02
2023-02-13T16:19:03.474Z,33.15
2023-02-13T16:21:34.344Z,30.23
2023-02-13T16:24:06.262Z,30.25
2023-02-13T16:26:36.332Z,35.40
2023-02-13T16:29:07.743Z,30.35
2023-02-13T16:31:34.548Z,31.80
2023-02-13T16:34:14.437Z,32.85
2023-02-13T16:36:41.299Z,32.90
2023-02-13T16:39:18.641Z,36.45
2023-02-13T16:41:45.570Z,31.45
2023-02-13T16:44:23.579Z,31.38
2023-02-13T16:46:54.950Z,34.67
2023-02-13T16:49:24.569Z,33.28
2023-02-13T16:52:16.113Z,33.00
2023-02-13T16:55:06.264Z,35.35
2023-02-13T16:57:36.016Z,34.53
2023-02-13T17:00:05.302Z,34.85
2023-02-13T17:02:40.706Z,33.55
2023-02-13T17:05:07.382Z,34.15
2023-02-13T17:07:35.244Z,37.35
2023-02-13T17:10:23.117Z,37.15
2023-02-13T17:12:51.514Z,35.38
2023-02-13T17:15:21.719Z,33.35
2023-02-13T17:20:18.466Z,33.42
2023-02-13T17:22:47.574Z,34.90
2023-02-13T17:25:24.401Z,37.50
2023-02-13T17:27:53.209Z,36.45
2023-02-13T17:30:22.933Z,34.83
2023-02-13T17:32:53.850Z,41.10
2023-02-13T17:35:20.536Z,39.00
2023-02-13T17:37:47.315Z,37.33
2023-02-13T17:40:20.739Z,35.25
2023-02-13T17:42:54.296Z,38.35
2023-02-13T17:45:24.426Z,40.38
2023-02-13T17:47:51.333Z,42.95
2023-02-13T17:50:18.792Z,38.65
2023-02-13T17:52:47.630Z,38.63
2023-02-13T17:55:18.975Z,40.05
2023-02-13T17:57:45.850Z,43.38
2023-02-13T18:00:12.923Z,42.25
2023-02-13T18:02:39.716Z,45.13
2023-02-13T18:05:06.851Z,41.10
2023-02-13T18:07:33.618Z,38.88
2023-02-13T18:10:00.500Z,41.42
2023-02-13T18:12:27.703Z,43.92
2023-02-13T18:14:54.769Z,41.90
2023-02-13T18:17:21.654Z,45.55
2023-02-13T18:19:50.411Z,40.55
2023-02-13T18:22:17.129Z,44.05
2023-02-13T18:24:43.922Z,42.50
2023-02-13T18:27:13.958Z,40.70
2023-02-13T18:29:40.823Z,44.25
2023-02-13T18:32:10.848Z,45.45
2023-02-13T18:34:38.689Z,46.65
2023-02-13T18:37:07.083Z,41.30
2023-02-13T18:39:34.444Z,43.90
2023-02-13T18:42:01.581Z,46.85
2023-02-13T18:44:29.083Z,48.25
2023-02-13T18:46:56.008Z,47.53
2023-02-13T18:49:22.766Z,52.80
2023-02-13T18:51:49.755Z,48.35
2023-02-13T18:54:17.948Z,48.97
2023-02-13T18:56:45.752Z,48.45
2023-02-13T18:59:12.559Z,53.80
2023-02-13T19:01:39.424Z,53.17
2023-02-13T19:04:06.339Z,47.92
2023-02-13T19:06:33.426Z,49.15
2023-02-13T19:09:00.415Z,61.13
2023-02-13T19:11:27.786Z,96.78
2023-02-13T19:13:56.388Z,117.60
2023-02-13T19:16:23.448Z,146.02
2023-02-13T19:18:56.015Z,80.78
2023-02-13T19:21:25.125Z,154.63
2023-02-13T19:23:52.432Z,44.20
2023-02-13T19:26:24.686Z,77.75
2023-02-13T19:28:51.797Z,74.22
2023-02-13T19:31:24.005Z,90.38
2023-02-13T19:33:52.047Z,69.13
2023-02-13T19:36:25.087Z,110.25
2023-02-13T19:39:00.045Z,66.20
2023-02-13T19:41:27.220Z,134.70
2023-02-13T19:43:53.968Z,83.57
2023-02-13T19:46:26.564Z,84.38
2023-02-13T19:48:53.924Z,57.92
2023-02-13T19:51:24.381Z,50.13
2023-02-13T19:54:02.607Z,81.63
2023-02-13T19:56:30.670Z,48.13
2023-02-13T19:58:57.370Z,47.08
2023-02-13T20:01:25.933Z,84.65
2023-02-13T20:03:53.581Z,53.00
2023-02-13T20:06:30.927Z,68.38
2023-02-13T20:08:59.826Z,85.47
2023-02-13T20:11:26.575Z,107.07
2023-02-13T20:13:55.590Z,48.75
2023-02-13T20:16:23.227Z,53.78
2023-02-13T20:18:50.324Z,73.00
2023-02-13T20:21:18.416Z,84.90
2023-02-13T20:23:50.485Z,61.67
2023-02-13T20:26:17.959Z,60.17
2023-02-13T20:28:46.331Z,54.55
2023-02-13T20:31:16.203Z,59.65
2023-02-13T20:33:43.728Z,42.60
2023-02-13T20:36:20.915Z,54.15
2023-02-13T20:38:48.469Z,62.92
2023-02-13T20:41:17.716Z,46.42
2023-02-13T20:43:45.155Z,69.90
2023-02-13T20:46:13.299Z,106.75
2023-02-13T20:48:40.756Z,63.50
2023-02-13T20:51:11.439Z,91.35
2023-02-13T20:53:39.615Z,61.03
2023-02-13T20:56:13.512Z,42.95
2023-02-13T20:58:41.706Z,42.65
2023-02-13T21:01:13.029Z,54.67
2023-02-13T21:03:40.439Z,92.50
2023-02-13T21:06:07.686Z,51.50
2023-02-13T21:08:34.646Z,39.90
2023-02-13T21:11:02.711Z,70.38
2023-02-13T21:13:29.404Z,65.82
2023-02-13T21:16:04.716Z,51.88
2023-02-13T21:18:31.486Z,40.70
2023-02-13T21:20:58.496Z,58.95
2023-02-13T21:23:25.322Z,51.13
2023-02-13T21:25:52.043Z,47.35
2023-02-13T21:28:19.111Z,79.15
2023-02-13T21:30:45.900Z,40.40
2023-02-13T21:33:12.642Z,39.08
2023-02-13T21:35:39.345Z,74.78
2023-02-13T21:38:06.074Z,41.60
2023-02-13T21:40:32.765Z,58.78
2023-02-13T21:42:59.516Z,43.10
2023-02-13T21:45:26.282Z,37.55
2023-02-13T21:47:56.509Z,53.88
2023-02-13T21:50:24.207Z,37.63
2023-02-13T21:52:50.903Z,38.70
2023-02-13T21:55:17.649Z,35.88
2023-02-13T21:57:44.463Z,36.45
2023-02-13T22:00:11.958Z,52.17
2023-02-13T22:02:39.621Z,34.88
2023-02-13T22:05:06.623Z,35.70
2023-02-13T22:07:53.335Z,64.72
2023-02-13T22:10:20.105Z,46.30
2023-02-13T22:12:51.190Z,66.07
2023-02-13T22:15:18.013Z,36.42
2023-02-13T22:17:44.705Z,53.40
2023-02-13T22:20:12.862Z,74.10
2023-02-13T22:22:39.636Z,184.07
2023-02-13T22:25:06.772Z,84.07
2023-02-13T22:27:33.434Z,39.22
2023-02-13T22:30:00.198Z,49.33
2023-02-13T22:32:26.909Z,36.20
2023-02-13T22:34:53.954Z,151.25
2023-02-13T22:37:20.677Z,113.05
2023-02-13T22:39:47.610Z,31.17
2023-02-13T22:42:14.380Z,65.53
2023-02-13T22:44:41.094Z,77.80
2023-02-13T22:47:07.822Z,41.85
2023-02-13T22:49:35.891Z,64.15
2023-02-13T22:52:02.698Z,65.38
2023-02-13T22:54:29.539Z,115.07
2023-02-13T22:56:56.304Z,38.92
2023-02-13T22:59:23.188Z,91.07
2023-02-13T23:01:49.913Z,103.97
2023-02-13T23:04:16.831Z,32.90
2023-02-13T23:06:43.626Z,52.75
2023-02-13T23:09:11.962Z,146.05
2023-02-13T23:11:57.247Z,99.00
2023-02-13T23:14:24.938Z,66.97
2023-02-13T23:17:10.220Z,41.45
2023-02-13T23:19:36.942Z,36.33
2023-02-13T23:22:03.697Z,95.72
2023-02-13T23:24:31.199Z,99.45
2023-02-13T23:26:59.052Z,60.17
2023-02-13T23:29:26.590Z,34.30
2023-02-13T23:31:53.395Z,72.25
2023-02-13T23:34:20.305Z,90.07
2023-02-13T23:36:47.073Z,34.40
2023-02-13T23:39:13.869Z,29.08
2023-02-13T23:41:40.651Z,49.25
2023-02-13T23:44:07.374Z,32.58
2023-02-13T23:46:34.152Z,43.90
2023-02-13T23:49:00.928Z,34.85
2023-02-13T23:51:27.649Z,31.30
2023-02-13T23:53:56.237Z,31.50
2023-02-13T23:56:24.958Z,38.85
2023-02-13T23:58:51.696Z,46.80
